Nearby METAR Reports

 

EGMC - Southend-On-Sea, United Kingdom
Distance from station: NE 10km
Updated: 15/12/2018 10:50
Mostly cloudy
Mostly cloudy
 Wind from SSE
Wind: SSE 18 mph , 30 km/h
Temperature: 2°C
Wind Chill: -3°C
Dew Point: -2°C
Humidity: 75%
Barometer: 1017 hPa
Clouds: Mostly cloudy
Visibility: 6 miles , 10 km
Cloud details: Mostly cloudy 610 m
2018/12/15 10:50 EGMC 151050Z 15016KT 9999 BKN020 02/M02 Q1017
EGLC - London City Airp, United Kingdom
Distance from station: W 37km
Updated: 15/12/2018 10:50
Mostly cloudy
Mostly cloudy
 Wind from ESE
Wind: ESE 14 mph , 22 km/h
Temperature: 3°C
Wind Chill: -2°C
Dew Point: -1°C
Humidity: 75%
Barometer: 1016 hPa
Clouds: Mostly cloudy
Visibility: 6 miles , 10 km
Cloud details: Mostly cloudy 671 m
2018/12/15 10:50 EGLC 151050Z AUTO 12012KT 9999 BKN022 03/M01 Q1016
EGKB - Biggin Hill, United Kingdom
Distance from station: WSW 45km
Updated: 15/12/2018 10:50
Partly cloudy
Partly cloudy
 Wind from SE
Wind: SE 16 mph , 26 km/h, Gust: 29 mph , 46 km/h
Temperature: 2°C
Wind Chill: -3°C
Dew Point: -2°C
Humidity: 75%
Barometer: 1014 hPa
Clouds: Partly cloudy
Visibility: 6 miles , 10 km
Cloud details: Partly cloudy 457 m
2018/12/15 10:50 EGKB 151050Z 14014G25KT 100V160 9999 SCT015 02/M02 Q1014
 
EGSS - Stansted Airport, United Kingdom
Distance from station: NNW 48km
Updated: 15/12/2018 10:50
Mostly cloudy
Mostly cloudy
 Wind from SE
Wind: SE 18 mph , 30 km/h
Temperature: 1°C
Wind Chill: -5°C
Dew Point: -2°C
Humidity: 81%
Barometer: 1015 hPa
Clouds: Mostly cloudy
Visibility: 6 miles , 10 km
Cloud details: Mostly cloudy 518 m
2018/12/15 10:50 EGSS 151050Z AUTO 14016KT 9999 BKN017 01/M02 Q1015
EGKK - London/Gatwick A, United Kingdom
Distance from station: SW 67km
Updated: 15/12/2018 10:50
Light rain, Few clouds
Light rain, Few clouds
 Wind from SE
Wind: SE 15 mph , 24 km/h
Temperature: 3°C
Wind Chill: -2°C
Dew Point: -1°C
Humidity: 75%
Barometer: 1015 hPa
Summary: Light rain
Clouds: Few Clouds
Visibility: 6 miles , 9 km
Cloud details: Few Clouds 610 m
2018/12/15 10:50 EGKK 151050Z 13013KT 9000 -RA FEW020 03/M01 Q1015
EGMD - Lydd Airport, United Kingdom
Distance from station: SSE 67km
Updated: 15/12/2018 10:50
Mostly cloudy
Mostly cloudy
 Wind from SSE
Wind: SSE 21 mph , 33 km/h
Temperature: 3°C
Wind Chill: -3°C
Dew Point: -1°C
Humidity: 75%
Barometer: 1018 hPa
Clouds: Mostly cloudy
Visibility: 6 miles , 10 km
Cloud details: Mostly cloudy 518 m
2018/12/15 10:50 EGMD 151050Z 16018KT 9999 BKN017 03/M01 Q1018
 
EGWU - Northolt Raf, United Kingdom
Distance from station: W 69km
Updated: 15/12/2018 10:50
Mostly cloudy
Mostly cloudy
 Wind from SSE
Wind: SSE 17 mph , 28 km/h
Temperature: 3°C
Wind Chill: -3°C
Dew Point: -2°C
Humidity: 70%
Barometer: 1014 hPa
Clouds: Mostly cloudy
Visibility: 6 miles , 10 km
Cloud details: Mostly cloudy 1463 m
Mostly cloudy 3658 m
2018/12/15 10:50 EGWU 151050Z 15015KT 9999 BKN048 BKN120 03/M02 Q1014 BECMG BKN012
EGLL - London/Heathrow, United Kingdom
Distance from station: W 72km
Updated: 15/12/2018 10:50
Light rain, Mostly cloudy
Light rain, Mostly cloudy
 Wind from SE
Wind: SE 16 mph , 26 km/h
Temperature: 3°C
Wind Chill: -2°C
Dew Point: -1°C
Humidity: 75%
Barometer: 1014 hPa
Summary: Light rain
Clouds: Mostly cloudy
Visibility: 6 miles , 10 km
Cloud details: Mostly cloudy 1250 m
2018/12/15 10:50 EGLL 151050Z AUTO 13014KT 9999 -RA BKN041 03/M01 Q1014 TEMPO 4000 RA
EGUW - Wattisham Raf, United Kingdom
Distance from station: NNE 72km
Updated: 15/12/2018 09:50
NOT Current
Overcast
Overcast
 Wind from SSE
Wind: SSE 15 mph , 24 km/h
Temperature: 1°C
Wind Chill: -4°C
Dew Point: -3°C
Humidity: 75%
Barometer: 1018 hPa
Clouds: Overcast
Visibility: 6 miles , 10 km
Cloud details: Overcast 579 m
2018/12/15 09:50 EGUW 150950Z AUTO 15013KT 9999 OVC019/// 01/M03 Q1018
 
EGGW - Luton Airport, United Kingdom
Distance from station: WNW 76km
Updated: 15/12/2018 10:50
Clear
Clear
 Wind from SE
Wind: SE 18 mph , 30 km/h
Temperature: 1°C
Wind Chill: -5°C
Dew Point: -2°C
Humidity: 81%
Barometer: 1013 hPa
Clouds: Clear
Visibility: 6 miles , 10 km
2018/12/15 10:50 EGGW 151050Z AUTO 14016KT 9999 NCD 01/M02 Q1013
EGSC - Cambridge, United Kingdom
Distance from station: NNW 81km
Updated: 15/12/2018 10:50
Few Clouds
Few Clouds
 Wind from SSE
Wind: SSE 20 mph , 31 km/h, Gust: 32 mph , 52 km/h
Temperature: 1°C
Wind Chill: -5°C
Dew Point: -3°C
Humidity: 75%
Barometer: 1015 hPa
Clouds: Few Clouds
Visibility: 6 miles , 10 km
Cloud details: Few Clouds 640 m
2018/12/15 10:50 EGSC 151050Z 15017G28KT 9999 FEW021 01/M03 Q1015